Weather at Whiting Field Naval Air Station South Airport

Public forecast

Using degrees Fahrenheit for public forecast. Weather courtesy of forecast.io.

Current aviation weather report (METAR) for Whiting Field Naval Air Station South Airport

Retrieved 2021/09/28 12:56 UTC (37 minutes ago):

KNDZ 281256Z 06003KT 10SM FEW025 SCT080 BKN250 22/20 A3005 RMK AO2 SLP160 T02220200

Closest aviation forecast (TAF) to Whiting Field Naval Air Station South Airport

Forecast is more than 12 hours old.

Closest forecast is Whiting Field Naval Air Station - North, 1.2 nm (2.2 km) N. Retrieved 2015/11/30 15:15 UTC (6 years ago):

TAF COR KNSE 301500Z 3015/0115 13004KT 9999 FEW040 BKN200 QNH3002INS FM301800 15006KT 9999 SCT040 SCT150 BKN200 QNH2997INS TEMPO 3019/0100 BKN040 FM010300 17003KT 6000 BR SCT008 BKN035 OVC150 QNH3001INS TEMPO 0103/0106 1600 BR BKN004 OVC008 FM010700 16003KT 0800 FG VV001 QNH3002INS FM011400 16006KT 4800 BR VCSH SCT002 BKN010 OVC050 COR QNH2996INS T26/3019Z T18/0110Z COR 1508 FN20031